Lexington, Ohio
Current Conditions -  °F | °C
As of 8:52 AM on Monday 20 Oct 2014 (Local Time) from KMFD Reporting Station
Few Clouds Few Clouds  
Wind Chill: 43°   Ceiling: Unl
Heat Index: 47°   Visibility: 10mi
Dew Point: 41°   Wind: 9mph
Humidity: 80%   Direction: 200°SSW
Pressure: 29.95"   Gusts: NA
Location:  40.6648°N, 82.6104°W
Report Text: KMFD 201252Z 20008KT 10SM FEW110 08/05 A2995 RMK AO2 SLP148 T00830050
Loading
Personal Weather Stations






























Interactive Weather Map
Tropical Storm Tracking
New forecast layout! Learn more

10-Day Weather Forecast

Advertisements
Track Severe Weather on mobile